Time;durP1;ratioP1;P1;durP2;ratioP2;P2;SDS_P1;SDS_P2;PMS_P1;PMS_P2;Temp;Humidity;BMP_temperature;BMP_pressure;BME280_temperature;BME280_humidity;BME280_pressure;Samples;Min_cycle;Max_cycle;Signal;HPM_P1;HPM_P2
2022/02/19 00:00:13;;;;;;;11.35;2.65;;;;;;;6.40;75.29;100356.84;5275395;28;20028;-73
2022/02/19 00:02:44;;;;;;;13.32;2.70;;;;;;;6.39;75.75;100370.00;5273701;28;20039;-73
2022/02/19 00:05:16;;;;;;;13.77;2.30;;;;;;;6.40;76.59;100382.06;5276171;28;20251;-74
2022/02/19 00:07:47;;;;;;;15.07;2.97;;;;;;;6.40;75.61;100389.84;5275526;28;20028;-73
2022/02/19 00:10:19;;;;;;;11.18;3.25;;;;;;;6.37;76.50;100397.91;5276530;28;20056;-73
2022/02/19 00:12:50;;;;;;;10.55;2.05;;;;;;;6.35;77.04;100403.22;5274285;28;20184;-74
2022/02/19 00:15:21;;;;;;;9.75;2.47;;;;;;;6.34;77.61;100402.38;5272485;28;20064;-73
2022/02/19 00:17:54;;;;;;;11.48;2.38;;;;;;;6.39;76.85;100412.44;5274342;28;20047;-73
2022/02/19 00:20:25;;;;;;;13.27;3.60;;;;;;;6.36;76.94;100407.47;5273246;28;20770;-73
2022/02/19 00:22:57;;;;;;;11.82;2.50;;;;;;;6.35;77.91;100416.22;5275824;28;20031;-73
2022/02/19 00:25:28;;;;;;;15.35;2.70;;;;;;;6.28;78.69;100422.81;5275331;28;20123;-72
2022/02/19 00:27:59;;;;;;;14.30;2.97;;;;;;;6.25;78.93;100426.50;5274086;28;20055;-72
2022/02/19 00:30:30;;;;;;;12.43;2.50;;;;;;;6.21;78.63;100440.66;5274427;28;20082;-73
2022/02/19 00:33:02;;;;;;;11.57;2.53;;;;;;;6.20;79.74;100439.00;5275267;28;20021;-73
2022/02/19 00:35:33;;;;;;;8.05;2.10;;;;;;;6.17;79.37;100438.38;5276046;28;20472;-73
2022/02/19 00:38:04;;;;;;;9.70;2.53;;;;;;;6.18;78.87;100451.28;5273747;28;20412;-72
2022/02/19 00:40:36;;;;;;;13.38;2.60;;;;;;;6.15;79.24;100448.06;5275522;28;20024;-73
2022/02/19 00:43:07;;;;;;;12.93;2.75;;;;;;;6.07;78.99;100444.25;5275072;28;20023;-73
2022/02/19 00:45:38;;;;;;;10.48;2.40;;;;;;;6.08;79.86;100458.09;5274928;28;20587;-72
2022/02/19 00:48:10;;;;;;;12.32;2.80;;;;;;;6.11;79.47;100449.25;5274830;28;20393;-73
2022/02/19 00:50:41;;;;;;;15.52;3.00;;;;;;;6.02;79.69;100477.56;5274975;28;20038;-72
2022/02/19 00:53:13;;;;;;;13.65;3.03;;;;;;;6.08;80.52;100476.28;5273887;28;20032;-72
2022/02/19 00:55:44;;;;;;;8.85;2.30;;;;;;;6.12;80.04;100489.91;5275021;28;20090;-72
2022/02/19 00:58:15;;;;;;;11.93;2.05;;;;;;;6.16;80.20;100497.38;5274979;28;20021;-73
2022/02/19 01:00:47;;;;;;;10.00;2.38;;;;;;;6.13;80.29;100495.00;5274706;28;20094;-72
2022/02/19 01:03:18;;;;;;;13.77;2.60;;;;;;;6.16;80.74;100504.34;5274953;28;20040;-72
2022/02/19 01:05:49;;;;;;;11.30;2.47;;;;;;;6.20;79.67;100514.41;5275199;28;20391;-72
2022/02/19 01:08:21;;;;;;;11.75;2.40;;;;;;;6.21;79.31;100523.03;5274768;28;20052;-73
2022/02/19 01:10:52;;;;;;;10.50;2.10;;;;;;;6.18;78.74;100516.31;5274564;28;20028;-73
2022/02/19 01:13:24;;;;;;;14.80;2.60;;;;;;;6.21;78.87;100517.84;5274730;28;20035;-73
2022/02/19 01:15:58;;;;;;;11.07;2.42;;;;;;;6.20;79.48;100526.59;5275155;28;20397;-73
2022/02/19 01:18:29;;;;;;;9.75;2.55;;;;;;;6.18;79.76;100513.72;5271921;28;20118;-73
2022/02/19 01:21:01;;;;;;;10.77;2.13;;;;;;;6.25;79.65;100535.75;5275405;28;20096;-73
2022/02/19 01:23:32;;;;;;;12.00;2.50;;;;;;;6.21;79.77;100529.09;5274287;28;20123;-73
2022/02/19 01:26:03;;;;;;;12.38;2.20;;;;;;;6.22;79.68;100530.75;5273737;28;20066;-71
2022/02/19 01:28:34;;;;;;;10.65;2.13;;;;;;;6.24;79.17;100546.25;5275332;28;20981;-70
2022/02/19 01:31:06;;;;;;;10.85;2.63;;;;;;;6.21;79.15;100551.66;5275169;28;20436;-71
2022/02/19 01:33:37;;;;;;;16.63;2.85;;;;;;;6.25;79.07;100566.09;5274394;28;20447;-70
2022/02/19 01:36:09;;;;;;;10.77;1.95;;;;;;;6.30;78.57;100553.63;5273169;28;20032;-70
2022/02/19 01:38:40;;;;;;;18.15;2.95;;;;;;;6.27;79.29;100579.84;5273983;28;20416;-70
2022/02/19 01:41:12;;;;;;;16.00;3.25;;;;;;;6.28;77.18;100576.31;5275164;28;20055;-70
2022/02/19 01:43:43;;;;;;;8.10;2.67;;;;;;;6.25;77.19;100571.31;5274508;28;20085;-70
2022/02/19 01:46:15;;;;;;;9.82;2.00;;;;;;;6.32;77.80;100581.16;5272900;28;20031;-71
2022/02/19 01:48:46;;;;;;;10.25;2.45;;;;;;;6.25;77.83;100608.59;5274409;28;20444;-69
2022/02/19 01:51:17;;;;;;;13.38;2.67;;;;;;;6.25;76.81;100605.13;5272186;28;20309;-70
2022/02/19 01:53:49;;;;;;;11.93;2.65;;;;;;;6.17;76.81;100616.06;5274489;28;20111;-70
2022/02/19 01:56:22;;;;;;;11.52;2.13;;;;;;;6.22;76.40;100608.81;5274955;28;20877;-70
2022/02/19 01:58:53;;;;;;;10.30;2.85;;;;;;;6.28;76.14;100616.16;5273915;28;20028;-71
2022/02/19 02:01:24;;;;;;;7.85;2.03;;;;;;;6.25;75.88;100618.13;5273801;28;20039;-70
2022/02/19 02:03:56;;;;;;;7.90;2.28;;;;;;;6.27;76.08;100634.47;5274084;28;20025;-71
2022/02/19 02:06:27;;;;;;;10.18;1.95;;;;;;;6.23;75.43;100646.03;5274631;28;20504;-70
2022/02/19 02:08:59;;;;;;;11.07;2.58;;;;;;;6.25;76.11;100645.00;5272711;28;20127;-70
2022/02/19 02:11:30;;;;;;;9.10;1.70;;;;;;;6.26;75.94;100645.84;5274240;28;20035;-70
2022/02/19 02:14:01;;;;;;;11.85;2.30;;;;;;;6.28;76.56;100649.97;5274762;28;20111;-70
2022/02/19 02:16:37;;;;;;;15.82;2.67;;;;;;;6.33;76.50;100662.69;5274641;28;20040;-70
2022/02/19 02:19:10;;;;;;;11.52;2.47;;;;;;;6.27;75.17;100657.91;5273375;28;20036;-70
2022/02/19 02:21:41;;;;;;;9.25;2.53;;;;;;;6.25;74.90;100670.16;5273797;28;20035;-70
2022/02/19 02:24:12;;;;;;;7.10;1.67;;;;;;;6.30;74.41;100668.09;5274394;28;20099;-71
2022/02/19 02:26:44;;;;;;;9.77;2.13;;;;;;;6.31;75.06;100681.00;5272866;28;20032;-70
2022/02/19 02:29:15;;;;;;;9.73;2.65;;;;;;;6.28;74.53;100685.56;5276575;28;20016;-69
2022/02/19 02:31:46;;;;;;;13.15;2.50;;;;;;;6.26;75.55;100677.06;5278097;28;20127;-70
2022/02/19 02:34:20;;;;;;;9.68;1.90;;;;;;;6.26;76.77;100690.06;5276873;28;20032;-70
2022/02/19 02:36:52;;;;;;;10.00;2.00;;;;;;;6.23;76.00;100698.06;5277059;28;20043;-70
2022/02/19 02:39:23;;;;;;;8.65;1.95;;;;;;;6.23;75.70;100680.69;5278196;28;20028;-70
2022/02/19 02:41:54;;;;;;;10.35;1.88;;;;;;;6.27;76.12;100697.75;5277875;28;20123;-70
2022/02/19 02:44:26;;;;;;;10.48;2.22;;;;;;;6.29;75.92;100697.66;5277533;28;20047;-70
2022/02/19 02:46:57;;;;;;;12.23;2.90;;;;;;;6.25;76.61;100709.19;5277534;28;20110;-71
2022/02/19 02:49:28;;;;;;;7.35;2.00;;;;;;;6.16;76.58;100700.25;5276779;28;20043;-72
2022/02/19 02:52:00;;;;;;;6.93;2.10;;;;;;;6.20;76.80;100709.50;5277800;28;20027;-70
2022/02/19 02:54:31;;;;;;;10.63;2.63;;;;;;;6.24;77.60;100723.13;5277519;28;20355;-72
2022/02/19 02:57:03;;;;;;;8.60;2.40;;;;;;;6.24;77.52;100726.56;5277478;28;20035;-70
2022/02/19 02:59:34;;;;;;;7.70;2.10;;;;;;;6.14;77.42;100725.56;5276573;28;20068;-70
2022/02/19 03:02:06;;;;;;;11.32;2.15;;;;;;;6.14;77.61;100735.09;5275885;28;20031;-71
2022/02/19 03:04:37;;;;;;;8.30;1.80;;;;;;;6.18;77.71;100752.19;5276647;28;20119;-70
2022/02/19 03:07:08;;;;;;;10.93;1.80;;;;;;;6.14;77.79;100750.72;5276008;28;20036;-70
2022/02/19 03:09:39;;;;;;;15.82;2.55;;;;;;;6.15;78.28;100757.59;5276443;28;20127;-70
2022/02/19 03:12:11;;;;;;;6.93;1.55;;;;;;;6.15;78.29;100766.22;5277653;28;20032;-71
2022/02/19 03:14:42;;;;;;;11.30;2.22;;;;;;;6.10;78.59;100773.53;5276673;28;20076;-72
2022/02/19 03:17:13;;;;;;;9.20;1.98;;;;;;;6.14;79.06;100774.13;5276819;28;20086;-71
2022/02/19 03:19:47;;;;;;;8.90;1.75;;;;;;;6.11;79.18;100769.16;5276480;28;20025;-70
2022/02/19 03:22:19;;;;;;;14.18;2.88;;;;;;;6.06;79.93;100772.88;5277371;28;20024;-70
2022/02/19 03:24:50;;;;;;;12.38;2.72;;;;;;;6.07;78.50;100787.56;5275405;28;20138;-70
2022/02/19 03:27:26;;;;;;;10.10;1.98;;;;;;;6.20;78.45;100791.94;5276816;28;20579;-70
2022/02/19 03:29:58;;;;;;;11.85;3.10;;;;;;;6.12;78.76;100791.63;5276689;28;20033;-70
2022/02/19 03:32:29;;;;;;;13.73;2.88;;;;;;;6.13;78.71;100793.28;5275813;28;20024;-71
2022/02/19 03:35:00;;;;;;;15.10;2.42;;;;;;;6.15;78.59;100800.03;5276272;28;20069;-70
2022/02/19 03:37:36;;;;;;;9.48;1.88;;;;;;;6.13;77.53;100812.31;5277105;28;20028;-69
2022/02/19 03:40:09;;;;;;;10.43;2.22;;;;;;;6.07;78.42;100817.94;5275855;28;20029;-70
2022/02/19 03:42:42;;;;;;;8.45;2.38;;;;;;;6.13;78.68;100822.72;5276042;28;20408;-70
2022/02/19 03:45:14;;;;;;;13.27;2.72;;;;;;;6.12;78.91;100828.03;5276464;28;20020;-70
2022/02/19 03:47:45;;;;;;;13.70;2.60;;;;;;;6.06;79.37;100837.06;5276612;28;20508;-70
2022/02/19 03:50:17;;;;;;;12.43;2.90;;;;;;;6.09;78.50;100837.69;5277262;28;20039;-70
2022/02/19 03:52:49;;;;;;;13.15;3.22;;;;;;;6.11;77.97;100850.59;5275341;28;20385;-70
2022/02/19 03:55:20;;;;;;;10.50;2.22;;;;;;;6.12;78.02;100841.03;5276845;28;20039;-70
2022/02/19 03:57:51;;;;;;;13.88;2.75;;;;;;;6.12;78.57;100854.03;5275018;28;20028;-70
2022/02/19 04:00:23;;;;;;;10.23;2.28;;;;;;;6.13;78.62;100860.91;5275391;28;20024;-72
2022/02/19 04:02:54;;;;;;;16.98;3.10;;;;;;;6.07;76.89;100878.59;5275797;28;20074;-71
2022/02/19 04:05:26;;;;;;;12.63;2.85;;;;;;;6.13;76.10;100872.13;5275915;28;20101;-70
2022/02/19 04:07:57;;;;;;;14.13;2.50;;;;;;;6.15;76.18;100880.69;5275898;28;20071;-70
2022/02/19 04:10:28;;;;;;;11.43;2.72;;;;;;;6.14;74.85;100891.16;5274025;28;20118;-69
2022/02/19 04:13:00;;;;;;;15.35;2.50;;;;;;;6.08;74.44;100887.22;5276373;28;20028;-70
2022/02/19 04:15:31;;;;;;;18.58;2.78;;;;;;;6.14;74.42;100897.22;5275668;28;20158;-70
2022/02/19 04:18:03;;;;;;;9.88;2.33;;;;;;;6.12;74.00;100888.69;5274760;28;20039;-70
2022/02/19 04:20:34;;;;;;;10.98;2.70;;;;;;;6.12;74.02;100901.69;5275537;28;20035;-70
2022/02/19 04:23:05;;;;;;;17.40;3.00;;;;;;;6.13;73.49;100905.94;5276588;28;20036;-70
2022/02/19 04:25:37;;;;;;;13.35;3.20;;;;;;;6.11;73.42;100913.03;5276639;28;20032;-70
2022/02/19 04:28:10;;;;;;;15.75;2.97;;;;;;;6.15;73.83;100909.28;5273313;28;20135;-70
2022/02/19 04:30:41;;;;;;;12.25;2.58;;;;;;;6.11;74.20;100905.22;5275433;28;20481;-71
2022/02/19 04:33:12;;;;;;;9.63;2.33;;;;;;;6.13;73.85;100924.16;5275952;28;20020;-70
2022/02/19 04:35:45;;;;;;;13.75;2.50;;;;;;;6.08;76.13;100924.47;5274625;28;20035;-70
2022/02/19 04:38:17;;;;;;;10.80;2.15;;;;;;;6.04;75.99;100927.38;5275356;28;20467;-70
2022/02/19 04:40:48;;;;;;;10.38;2.60;;;;;;;6.07;75.75;100930.59;5273958;28;20091;-70
2022/02/19 04:43:20;;;;;;;7.53;2.17;;;;;;;6.01;74.64;100938.78;5275909;28;20043;-70
2022/02/19 04:45:51;;;;;;;11.00;2.65;;;;;;;6.06;74.41;100935.88;5274456;28;20040;-69
2022/02/19 04:48:22;;;;;;;11.55;2.35;;;;;;;6.10;74.15;100942.59;5275441;28;20493;-70
2022/02/19 04:50:54;;;;;;;14.05;2.40;;;;;;;6.09;74.72;100948.69;5274280;28;20481;-70
2022/02/19 04:53:25;;;;;;;14.40;3.30;;;;;;;6.07;77.27;100969.63;5274217;28;20054;-70
2022/02/19 04:55:57;;;;;;;13.57;2.80;;;;;;;5.93;83.84;100967.06;5274922;28;20042;-70
2022/02/19 04:58:28;;;;;;;14.77;3.63;;;;;;;5.80;85.21;100960.94;5275832;28;20032;-70
2022/02/19 05:00:59;;;;;;;12.27;2.60;;;;;;;5.76;87.75;100969.88;5273473;28;20032;-70
2022/02/19 05:03:31;;;;;;;9.00;2.97;;;;;;;5.69;89.25;100979.81;5272422;28;20366;-70
2022/02/19 05:06:03;;;;;;;11.65;2.15;;;;;;;5.71;91.99;100979.69;5273580;28;20319;-70
2022/02/19 05:08:34;;;;;;;12.82;2.78;;;;;;;5.61;92.93;100980.28;5274422;28;20040;-70
2022/02/19 05:11:07;;;;;;;13.00;3.05;;;;;;;5.67;95.65;100980.81;5274589;28;20035;-70
2022/02/19 05:13:39;;;;;;;;;;;;;;;5.98;93.73;100993.59;5275012;28;20134;-70
2022/02/19 05:16:10;;;;;;;11.05;2.22;;;;;;;5.65;99.41;100996.53;5274471;28;19944;-70
2022/02/19 05:18:41;;;;;;;15.48;2.95;;;;;;;5.53;97.22;101002.44;5275476;28;20118;-70
2022/02/19 05:21:13;;;;;;;13.35;2.47;;;;;;;5.54;98.81;101002.38;5273220;28;20031;-70
2022/02/19 05:23:44;;;;;;;10.98;2.38;;;;;;;5.53;96.91;101007.66;5275312;28;20028;-70
2022/02/19 05:26:15;;;;;;;11.95;2.50;;;;;;;5.56;97.66;101016.09;5274471;28;20028;-70
2022/02/19 05:28:47;;;;;;;11.32;2.38;;;;;;;5.52;95.95;101008.59;5274117;28;20024;-70
2022/02/19 05:31:18;;;;;;;10.32;3.00;;;;;;;5.47;94.14;101010.63;5275129;28;20047;-71
2022/02/19 05:33:49;;;;;;;12.30;2.90;;;;;;;5.36;94.51;101014.72;5275017;28;20086;-70
2022/02/19 05:36:20;;;;;;;11.88;2.42;;;;;;;5.37;95.42;101007.75;5273894;28;20040;-70
2022/02/19 05:38:54;;;;;;;10.10;2.20;;;;;;;5.33;95.50;101003.66;5274476;28;20029;-70
2022/02/19 05:41:25;;;;;;;7.18;2.50;;;;;;;5.27;95.64;101019.63;5274946;28;20557;-70
2022/02/19 05:43:56;;;;;;;10.52;2.28;;;;;;;5.22;95.15;101025.09;5274896;28;20127;-70
2022/02/19 05:46:27;;;;;;;10.98;2.15;;;;;;;5.24;95.39;101030.22;5273877;28;20035;-70
2022/02/19 05:48:59;;;;;;;11.52;2.35;;;;;;;5.20;95.48;101033.91;5274624;28;20117;-70
2022/02/19 05:51:31;;;;;;;12.40;2.67;;;;;;;5.22;96.69;101051.06;5274379;28;20035;-70
2022/02/19 05:54:03;;;;;;;20.52;4.18;;;;;;;5.19;95.32;101045.22;5273923;28;20043;-70
2022/02/19 05:56:34;;;;;;;10.00;2.85;;;;;;;5.21;96.60;101049.41;5274947;28;20040;-70
2022/02/19 05:59:05;;;;;;;18.63;3.08;;;;;;;5.20;97.27;101050.31;5274623;28;20008;-70
2022/02/19 06:01:37;;;;;;;14.80;2.88;;;;;;;5.22;94.12;101056.25;5272755;28;20757;-70
2022/02/19 06:04:08;;;;;;;13.73;2.70;;;;;;;5.18;95.94;101046.13;5276025;28;20074;-70
2022/02/19 06:06:39;;;;;;;9.30;2.22;;;;;;;5.17;96.39;101054.88;5276534;28;20036;-70
2022/02/19 06:09:10;;;;;;;10.65;2.35;;;;;;;5.19;96.31;101058.19;5276946;28;20044;-70
2022/02/19 06:11:42;;;;;;;10.98;2.45;;;;;;;5.16;94.86;101053.19;5277957;28;20033;-70
2022/02/19 06:14:14;;;;;;;17.23;3.00;;;;;;;5.10;95.95;101069.97;5278207;28;20027;-70
2022/02/19 06:16:45;;;;;;;15.05;3.17;;;;;;;5.03;96.20;101048.69;5276232;28;20123;-70
2022/02/19 06:19:17;;;;;;;8.80;2.30;;;;;;;5.05;96.36;101061.63;5278288;28;20471;-70
2022/02/19 06:21:49;;;;;;;12.93;2.50;;;;;;;5.06;96.85;101071.06;5275690;28;20551;-69
2022/02/19 06:24:20;;;;;;;12.35;3.05;;;;;;;5.07;96.34;101064.94;5278410;28;20032;-71
2022/02/19 06:26:52;;;;;;;14.75;2.58;;;;;;;5.00;95.69;101064.47;5277560;28;20056;-70
2022/02/19 06:29:23;;;;;;;12.93;2.72;;;;;;;5.01;96.43;101071.34;5278864;28;20028;-70
2022/02/19 06:31:54;;;;;;;9.57;2.97;;;;;;;5.00;95.63;101068.81;5277799;28;20020;-70
2022/02/19 06:34:25;;;;;;;12.93;2.97;;;;;;;5.03;96.10;101064.28;5277965;28;20031;-70
2022/02/19 06:36:57;;;;;;;11.60;2.67;;;;;;;4.97;94.70;101067.25;5276434;28;20029;-70
2022/02/19 06:39:28;;;;;;;10.98;2.25;;;;;;;5.00;94.59;101087.00;5278502;28;20071;-70
2022/02/19 06:42:00;;;;;;;12.52;3.45;;;;;;;5.00;94.89;101089.59;5278165;28;20043;-70
2022/02/19 06:44:31;;;;;;;13.07;2.28;;;;;;;5.01;95.39;101091.28;5278249;28;20477;-70
2022/02/19 06:47:02;;;;;;;13.02;2.55;;;;;;;4.99;94.25;101106.94;5276892;28;20036;-70
2022/02/19 06:49:34;;;;;;;10.80;2.28;;;;;;;5.00;94.11;101113.81;5277562;28;20031;-70
2022/02/19 06:52:05;;;;;;;9.85;2.88;;;;;;;4.92;94.24;101113.41;5278050;28;20029;-68
2022/02/19 06:54:37;;;;;;;13.20;2.67;;;;;;;4.93;94.40;101122.03;5276864;28;20453;-71
2022/02/19 06:57:13;;;;;;;12.35;2.22;;;;;;;4.97;95.38;101142.56;5277152;28;20028;-69
2022/02/19 06:59:45;;;;;;;12.73;2.40;;;;;;;4.87;98.01;101141.38;5276275;28;20138;-70
2022/02/19 07:02:17;;;;;;;14.38;3.58;;;;;;;4.80;97.30;101134.84;5273966;28;20062;-70
2022/02/19 07:04:48;;;;;;;8.17;2.63;;;;;;;4.82;98.12;101144.25;5273222;28;20545;-70
2022/02/19 07:07:20;;;;;;;10.20;2.38;;;;;;;4.79;98.69;101146.16;5275486;28;20119;-71
2022/02/19 07:09:51;;;;;;;11.75;2.63;;;;;;;4.78;97.91;101160.09;5276820;28;20310;-71
2022/02/19 07:12:22;;;;;;;8.80;2.20;;;;;;;4.72;97.95;101157.81;5275696;28;20756;-70
2022/02/19 07:14:54;;;;;;;11.60;2.22;;;;;;;4.74;98.45;101168.97;5275739;28;20047;-72
2022/02/19 07:17:25;;;;;;;7.90;2.10;;;;;;;4.79;97.63;101170.38;5276400;28;20028;-70
2022/02/19 07:19:56;;;;;;;13.80;2.42;;;;;;;4.81;97.18;101173.72;5275418;28;20024;-70
2022/02/19 07:22:27;;;;;;;10.60;2.33;;;;;;;4.87;99.10;101180.31;5276077;28;20039;-69
2022/02/19 07:24:59;;;;;;;10.57;2.58;;;;;;;4.86;97.12;101176.06;5276144;28;20024;-70
2022/02/19 07:27:37;;;;;;;12.65;2.50;;;;;;;4.90;96.34;101182.75;5276884;28;20043;-70
2022/02/19 07:30:13;;;;;;;13.45;3.38;;;;;;;4.86;97.68;101196.84;5275552;28;20367;-70
2022/02/19 07:32:44;;;;;;;16.90;3.13;;;;;;;4.85;98.26;101206.38;5275175;28;20024;-69
2022/02/19 07:35:16;;;;;;;11.35;2.55;;;;;;;4.76;97.40;101206.03;5274825;28;20028;-70
2022/02/19 07:37:48;;;;;;;14.25;2.97;;;;;;;4.76;98.51;101203.44;5272932;28;20024;-69
2022/02/19 07:40:19;;;;;;;14.50;2.78;;;;;;;4.77;100.00;101207.69;5275479;28;20032;-71
2022/02/19 07:42:50;;;;;;;9.43;2.03;;;;;;;4.82;100.00;101210.91;5273543;28;20051;-70
2022/02/19 07:45:24;;;;;;;15.00;3.03;;;;;;;4.88;100.00;101213.16;5274973;28;20535;-70
2022/02/19 07:47:56;;;;;;;11.45;2.22;;;;;;;4.87;100.00;101216.66;5266757;28;20218;-70
2022/02/19 07:58:57;;;;;;;12.30;3.08;;;;;;;4.99;100.00;101213.38;5276216;28;20549;-70
2022/02/19 08:01:28;;;;;;;13.00;2.67;;;;;;;5.01;97.89;101234.09;5275967;28;20032;-72
2022/02/19 08:04:00;;;;;;;12.35;2.50;;;;;;;5.09;97.78;101237.09;5273191;28;20027;-70
2022/02/19 08:06:32;;;;;;;13.82;2.30;;;;;;;5.11;98.08;101227.44;5274597;28;20024;-70
2022/02/19 08:09:03;;;;;;;19.00;3.08;;;;;;;5.14;96.60;101229.88;5274940;28;20051;-70
2022/02/19 08:11:34;;;;;;;13.23;2.78;;;;;;;5.17;97.40;101232.31;5275945;28;20024;-70
2022/02/19 08:14:06;;;;;;;13.40;2.58;;;;;;;5.20;95.67;101231.31;5274643;28;20477;-70
2022/02/19 08:16:38;;;;;;;13.90;2.47;;;;;;;5.16;96.20;101240.19;5274600;28;20563;-70
2022/02/19 08:19:09;;;;;;;12.65;2.83;;;;;;;5.19;96.06;101248.66;5276086;28;20388;-70
2022/02/19 08:21:41;;;;;;;8.63;2.28;;;;;;;5.14;94.64;101245.47;5275947;28;20040;-70
2022/02/19 08:24:12;;;;;;;11.35;2.50;;;;;;;5.18;95.33;101249.56;5274786;28;20024;-70
2022/02/19 08:26:43;;;;;;;14.48;3.15;;;;;;;5.18;94.97;101261.72;5275120;28;20032;-70
2022/02/19 08:29:15;;;;;;;15.15;2.30;;;;;;;5.19;95.45;101256.44;5275385;28;20115;-70
2022/02/19 08:31:46;;;;;;;10.98;2.85;;;;;;;5.24;94.82;101267.41;5275697;28;20032;-70
2022/02/19 08:34:17;;;;;;;11.82;2.60;;;;;;;5.26;95.19;101264.72;5275872;28;20033;-71
2022/02/19 08:36:48;;;;;;;11.05;2.70;;;;;;;5.29;94.37;101267.16;5274731;28;20024;-70
2022/02/19 08:39:20;;;;;;;10.55;2.58;;;;;;;5.25;94.71;101273.44;5274463;28;20028;-70
2022/02/19 08:41:52;;;;;;;12.57;2.50;;;;;;;5.29;94.74;101280.13;5276031;28;20496;-70
2022/02/19 08:44:23;;;;;;;13.93;2.92;;;;;;;5.40;93.82;101277.78;5275048;28;20119;-70
2022/02/19 08:46:54;;;;;;;15.70;2.88;;;;;;;5.48;94.27;101278.19;5275166;28;20025;-71
2022/02/19 08:49:26;;;;;;;10.68;2.10;;;;;;;5.50;93.64;101286.75;5274208;28;20051;-70
2022/02/19 08:52:01;;;;;;;12.23;3.20;;;;;;;5.50;93.50;101296.31;5275349;28;20028;-70
2022/02/19 08:54:34;;;;;;;13.43;2.72;;;;;;;5.63;93.81;101296.44;5275716;28;20032;-70
2022/02/19 08:57:05;;;;;;;12.02;2.88;;;;;;;5.63;93.27;101296.44;5274543;28;20031;-70
2022/02/19 08:59:36;;;;;;;11.75;2.58;;;;;;;5.70;92.74;101292.56;5274992;28;20028;-70
2022/02/19 09:02:08;;;;;;;9.95;2.22;;;;;;;5.73;92.40;101293.22;5274450;28;20032;-70
2022/02/19 09:04:39;;;;;;;11.10;2.85;;;;;;;5.79;93.26;101302.44;5274940;28;20059;-70
2022/02/19 09:07:13;;;;;;;17.55;2.97;;;;;;;5.85;92.71;101295.13;5274292;28;20461;-69
2022/02/19 09:09:46;;;;;;;10.88;2.13;;;;;;;5.76;91.91;101294.81;5275017;28;20049;-70
2022/02/19 09:12:18;;;;;;;;;;;;;;;6.17;90.11;101295.03;5274141;28;20111;-70
2022/02/19 09:14:49;;;;;;;13.15;3.30;;;;;;;5.94;92.15;101298.97;5269860;28;19916;-70
2022/02/19 09:17:20;;;;;;;16.23;2.63;;;;;;;5.89;91.99;101295.78;5274961;28;20025;-71
2022/02/19 09:19:52;;;;;;;12.90;3.13;;;;;;;5.98;91.82;101300.47;5273509;28;20064;-72
2022/02/19 09:22:23;;;;;;;10.98;2.50;;;;;;;6.01;92.14;101315.91;5275231;28;20390;-70
2022/02/19 09:24:54;;;;;;;16.40;3.17;;;;;;;6.07;91.30;101312.13;5275249;28;20382;-70
2022/02/19 09:27:25;;;;;;;7.82;2.72;;;;;;;6.08;90.92;101303.38;5274493;28;20405;-70
2022/02/19 09:29:57;;;;;;;12.82;2.30;;;;;;;6.07;90.02;101306.91;5274686;28;20550;-70
2022/02/19 09:32:28;;;;;;;12.73;2.28;;;;;;;6.01;89.22;101305.50;5274242;28;20395;-70
2022/02/19 09:34:59;;;;;;;10.27;2.47;;;;;;;6.00;91.55;101298.63;5274972;28;20033;-71
2022/02/19 09:37:32;;;;;;;19.23;3.35;;;;;;;6.08;89.50;101306.81;5272773;28;21616;-70
2022/02/19 09:40:04;;;;;;;7.35;2.10;;;;;;;6.14;89.15;101296.97;5277695;28;20632;-69
2022/02/19 09:42:37;;;;;;;10.90;2.73;;;;;;;6.21;89.26;101304.34;5277760;28;20028;-70
2022/02/19 09:45:09;;;;;;;10.85;2.05;;;;;;;6.20;87.71;101312.22;5276502;28;20032;-70
2022/02/19 09:47:40;;;;;;;13.57;2.30;;;;;;;6.16;87.47;101313.34;5276533;28;20531;-70
2022/02/19 09:50:12;;;;;;;13.68;2.78;;;;;;;6.24;88.30;101313.72;5277720;28;20468;-70
2022/02/19 09:52:43;;;;;;;13.48;2.83;;;;;;;6.34;88.16;101313.09;5277378;28;20478;-70
2022/02/19 09:55:15;;;;;;;13.20;2.67;;;;;;;6.44;87.60;101316.00;5277626;28;20028;-70
2022/02/19 09:57:46;;;;;;;12.32;2.92;;;;;;;6.50;86.16;101326.00;5273914;28;20029;-71
2022/02/19 10:00:43;;;;;;;8.27;2.00;;;;;;;6.75;86.50;101334.97;5278760;28;20035;-70
2022/02/19 10:03:21;;;;;;;14.88;2.40;;;;;;;6.68;84.61;101323.25;5275468;28;20535;-71
2022/02/19 10:05:55;;;;;;;10.43;2.47;;;;;;;6.65;84.48;101333.84;5277838;28;20081;-70
2022/02/19 10:08:26;;;;;;;12.05;2.53;;;;;;;6.73;84.85;101327.22;5276352;28;20079;-70
2022/02/19 10:10:58;;;;;;;12.68;2.05;;;;;;;6.83;84.98;101325.75;5278493;28;20063;-72
2022/02/19 10:13:37;;;;;;;12.63;2.28;;;;;;;6.99;82.50;101330.84;5275642;28;20089;-70
2022/02/19 10:16:10;;;;;;;10.65;1.95;;;;;;;6.91;80.76;101329.66;5277665;28;20059;-70
2022/02/19 10:18:44;;;;;;;10.40;2.65;;;;;;;7.05;81.12;101327.88;5278314;28;20036;-70
2022/02/19 10:21:17;;;;;;;8.45;1.83;;;;;;;7.06;79.44;101333.91;5277778;28;20495;-70
2022/02/19 10:23:52;;;;;;;8.57;2.30;;;;;;;7.10;77.28;101329.34;5277942;28;20020;-69
2022/02/19 10:26:31;;;;;;;12.73;2.45;;;;;;;7.10;78.10;101327.56;5276014;28;20024;-70
2022/02/19 10:29:05;;;;;;;10.27;2.13;;;;;;;7.14;77.33;101336.03;5277037;28;20043;-71
2022/02/19 10:31:36;;;;;;;13.90;2.42;;;;;;;7.22;76.21;101342.44;5278220;28;20037;-70
2022/02/19 10:34:09;;;;;;;6.57;1.98;;;;;;;7.12;73.10;101337.88;5274616;28;20039;-73
2022/02/19 10:36:49;;;;;;;11.02;2.50;;;;;;;7.36;74.89;101345.94;5276957;28;20024;-73
2022/02/19 10:39:31;;;;;;;9.73;2.05;;;;;;;7.29;70.93;101338.50;5274853;28;20046;-74
2022/02/19 10:42:05;;;;;;;11.93;2.28;;;;;;;7.35;71.14;101342.50;5276633;28;20028;-73
2022/02/19 10:44:36;;;;;;;13.07;2.60;;;;;;;7.57;71.75;101348.00;5274347;28;20035;-74
2022/02/19 10:47:23;;;;;;;10.02;2.30;;;;;;;7.79;70.31;101338.81;5276287;28;20377;-73
2022/02/19 10:50:08;;;;;;;8.63;2.38;;;;;;;7.66;70.59;101330.94;5275437;28;20054;-73
2022/02/19 10:52:42;;;;;;;8.82;1.70;;;;;;;7.72;69.12;101337.53;5276566;28;20131;-74
2022/02/19 10:55:17;;;;;;;8.82;1.65;;;;;;;7.94;69.28;101343.00;5276483;28;20052;-73
2022/02/19 10:57:52;;;;;;;10.55;2.40;;;;;;;8.04;67.34;101351.91;5275772;28;20099;-74
2022/02/19 11:00:24;;;;;;;8.07;2.35;;;;;;;8.19;68.79;101344.03;5276949;28;20033;-73
2022/02/19 11:02:56;;;;;;;13.40;2.33;;;;;;;8.12;67.38;101343.59;5275960;28;20032;-73
2022/02/19 11:05:29;;;;;;;15.77;2.58;;;;;;;8.07;66.21;101342.19;5276306;28;20036;-73
2022/02/19 11:08:01;;;;;;;10.60;2.40;;;;;;;8.20;66.69;101335.25;5272708;28;20035;-74
2022/02/19 11:10:33;;;;;;;10.63;2.50;;;;;;;8.07;65.12;101353.50;5273751;28;20020;-73
2022/02/19 11:13:05;;;;;;;9.65;2.13;;;;;;;8.29;65.95;101352.88;5275375;28;20109;-73
2022/02/19 11:15:37;;;;;;;8.15;1.90;;;;;;;8.32;65.67;101355.28;5269562;28;20510;-72
2022/02/19 11:18:09;;;;;;;9.38;2.03;;;;;;;8.44;66.05;101348.44;5266917;28;20058;-73
2022/02/19 11:20:41;;;;;;;6.35;1.67;;;;;;;8.51;64.97;101355.75;5272002;28;20570;-73
2022/02/19 11:23:14;;;;;;;10.52;2.00;;;;;;;8.64;64.47;101347.09;5275445;28;20020;-73
2022/02/19 11:25:45;;;;;;;8.25;2.15;;;;;;;8.75;64.99;101339.34;5274472;28;20060;-72
2022/02/19 11:28:17;;;;;;;11.10;2.00;;;;;;;8.64;62.85;101337.50;5276339;28;20279;-72
2022/02/19 11:30:54;;;;;;;9.05;2.15;;;;;;;8.87;63.49;101338.50;5274578;28;20029;-73
2022/02/19 11:33:29;;;;;;;6.43;1.80;;;;;;;8.91;62.75;101332.13;5275593;28;20020;-72
2022/02/19 11:36:03;;;;;;;9.48;2.38;;;;;;;9.02;61.53;101334.81;5272347;28;20370;-70
2022/02/19 11:38:36;;;;;;;6.60;1.83;;;;;;;9.18;61.00;101329.34;5270697;28;20727;-72
2022/02/19 11:41:09;;;;;;;7.43;2.00;;;;;;;9.40;61.17;101330.41;5272459;28;20119;-70
2022/02/19 11:43:47;;;;;;;8.40;2.05;;;;;;;9.45;60.51;101326.50;5273787;28;20082;-70
2022/02/19 11:46:25;;;;;;;7.47;1.55;;;;;;;9.47;61.15;101329.00;5275503;28;20094;-70
2022/02/19 11:48:56;;;;;;;11.02;2.33;;;;;;;9.33;61.69;101322.19;5275592;28;20020;-70
2022/02/19 11:51:28;;;;;;;12.80;1.90;;;;;;;9.17;61.42;101311.16;5276871;28;20122;-70
2022/02/19 11:54:02;;;;;;;5.70;1.50;;;;;;;9.00;61.51;101312.34;5274844;28;20033;-69
2022/02/19 11:56:37;;;;;;;9.73;2.00;;;;;;;8.83;60.71;101310.94;5276303;28;20059;-70